Time,TemperatureF,DewpointF,PressureIn,WindDirection,WindDirectionDegrees,WindSpeedMPH,WindSpeedGustMPH,Humidity,HourlyPrecipIn,Conditions,Clouds,dailyrainin,SoftwareType,DateUTC
2013-05-07 00:00:00,61.6,50.5,29.96,WSW,250,0.0,0.0,67,0.00,,---,0.00,VWS V14.01,2013-05-07 04:00:00,
2013-05-07 00:01:00,61.6,50.5,29.96,WSW,250,0.0,0.0,67,0.00,,---,0.00,VWS V14.01,2013-05-07 04:01:00,
2013-05-07 00:06:00,61.2,49.8,29.96,NNE,14,0.0,2.0,66,0.00,,---,0.00,VWS V14.01,2013-05-07 04:06:00,
2013-05-07 00:11:00,61.0,50.0,29.96,NNW,335,0.0,2.0,67,0.00,,---,0.00,VWS V14.01,2013-05-07 04:11:00,
2013-05-07 00:16:00,60.6,49.6,29.97,North,352,0.0,2.0,67,0.00,,---,0.00,VWS V14.01,2013-05-07 04:16:00,
2013-05-07 00:21:00,60.2,49.6,29.97,NNE,14,0.0,2.0,68,0.00,,---,0.00,VWS V14.01,2013-05-07 04:21:00,
2013-05-07 00:26:00,60.1,49.5,29.97,NNE,23,1.0,2.0,68,0.00,,---,0.00,VWS V14.01,2013-05-07 04:26:00,
2013-05-07 00:30:00,60.1,49.5,29.97,ENE,75,0.0,2.0,68,0.00,,---,0.00,VWS V14.01,2013-05-07 04:30:00,
2013-05-07 00:32:00,60.0,49.4,29.97,ENE,75,0.0,1.0,68,0.00,,---,0.00,VWS V14.01,2013-05-07 04:32:00,
2013-05-07 00:37:00,59.7,49.5,29.96,ENE,75,0.0,1.0,69,0.00,,---,0.00,VWS V14.01,2013-05-07 04:37:00,
2013-05-07 00:42:00,59.3,49.5,29.96,ENE,75,0.0,1.0,70,0.00,,---,0.00,VWS V14.01,2013-05-07 04:42:00,
2013-05-07 00:47:00,58.8,49.4,29.97,ENE,75,0.0,1.0,71,0.00,,---,0.00,VWS V14.01,2013-05-07 04:47:00,
2013-05-07 00:52:00,58.6,49.6,29.96,ENE,61,1.0,1.0,72,0.00,,---,0.00,VWS V14.01,2013-05-07 04:52:00,
2013-05-07 00:57:00,58.8,49.4,29.96,ESE,105,0.0,1.0,71,0.00,,---,0.00,VWS V14.01,2013-05-07 04:57:00,
2013-05-07 01:00:00,58.7,49.3,29.96,ESE,105,0.0,1.0,71,0.00,,---,0.00,VWS V14.01,2013-05-07 05:00:00,
2013-05-07 01:02:00,58.6,49.2,29.96,ESE,104,0.0,0.0,71,0.00,,---,0.00,VWS V14.01,2013-05-07 05:02:00,
2013-05-07 01:07:00,58.5,49.1,29.97,ESE,105,0.0,0.0,71,0.00,,---,0.00,VWS V14.01,2013-05-07 05:07:00,
2013-05-07 01:12:00,58.4,49.0,29.97,ESE,105,0.0,0.0,71,0.00,,---,0.00,VWS V14.01,2013-05-07 05:12:00,
2013-05-07 01:17:00,58.4,49.0,29.96,ESE,105,0.0,0.0,71,0.00,,---,0.00,VWS V14.01,2013-05-07 05:17:00,
2013-05-07 01:22:00,58.2,48.8,29.96,ESE,104,0.0,0.0,71,0.00,,---,0.00,VWS V14.01,2013-05-07 05:22:00,
2013-05-07 01:27:00,58.0,48.7,29.96,ESE,105,0.0,0.0,71,0.00,,---,0.00,VWS V14.01,2013-05-07 05:27:00,
2013-05-07 01:30:00,57.9,48.6,29.96,ESE,105,0.0,0.0,71,0.00,,---,0.00,VWS V14.01,2013-05-07 05:30:00,
2013-05-07 01:32:00,57.9,48.9,29.96,ESE,105,0.0,0.0,72,0.00,,---,0.00,VWS V14.01,2013-05-07 05:32:00,
2013-05-07 01:37:00,57.7,49.1,29.96,ESE,104,0.0,0.0,73,0.00,,---,0.00,VWS V14.01,2013-05-07 05:37:00,
2013-05-07 01:42:00,57.8,49.2,29.96,ESE,105,0.0,0.0,73,0.00,,---,0.00,VWS V14.01,2013-05-07 05:42:00,
2013-05-07 01:47:00,57.6,49.0,29.96,ESE,105,0.0,0.0,73,0.00,,---,0.00,VWS V14.01,2013-05-07 05:47:00,
2013-05-07 01:52:00,57.8,48.8,29.96,East,91,0.0,1.0,72,0.00,,---,0.00,VWS V14.01,2013-05-07 05:52:00,
2013-05-07 01:57:00,57.8,48.8,29.96,East,98,0.0,1.0,72,0.00,,---,0.00,VWS V14.01,2013-05-07 05:57:00,
2013-05-07 02:00:00,57.7,49.1,29.96,East,98,0.0,1.0,73,0.00,,---,0.00,VWS V14.01,2013-05-07 06:00:00,
2013-05-07 02:02:00,57.7,49.1,29.96,East,98,0.0,0.0,73,0.00,,---,0.00,VWS V14.01,2013-05-07 06:02:00,
2013-05-07 02:07:00,57.7,48.8,29.96,NNE,20,0.0,2.0,72,0.00,,---,0.00,VWS V14.01,2013-05-07 06:07:00,
2013-05-07 02:12:00,57.7,48.0,29.95,NNE,20,0.0,2.0,70,0.00,,---,0.00,VWS V14.01,2013-05-07 06:12:00,
2013-05-07 02:17:00,57.7,48.0,29.95,NNE,20,0.0,2.0,70,0.00,,---,0.00,VWS V14.01,2013-05-07 06:17:00,
2013-05-07 02:22:00,57.7,47.6,29.95,NNE,23,0.0,2.0,69,0.00,,---,0.00,VWS V14.01,2013-05-07 06:22:00,
2013-05-07 02:27:00,57.8,48.1,29.95,NNE,22,0.0,2.0,70,0.00,,---,0.00,VWS V14.01,2013-05-07 06:27:00,
2013-05-07 02:30:00,57.7,48.0,29.95,NNE,22,0.0,2.0,70,0.00,,---,0.00,VWS V14.01,2013-05-07 06:30:00,
2013-05-07 02:32:00,57.7,48.4,29.95,NNE,22,0.0,0.0,71,0.00,,---,0.00,VWS V14.01,2013-05-07 06:32:00,
2013-05-07 02:37:00,57.7,48.8,29.95,North,11,0.0,1.0,72,0.00,,---,0.00,VWS V14.01,2013-05-07 06:37:00,
2013-05-07 02:42:00,57.6,48.3,29.95,North,10,0.0,1.0,71,0.00,,---,0.00,VWS V14.01,2013-05-07 06:42:00,
2013-05-07 02:47:00,57.5,47.8,29.95,North,10,0.0,1.0,70,0.00,,---,0.00,VWS V14.01,2013-05-07 06:47:00,
2013-05-07 02:52:00,57.4,48.1,29.95,North,11,0.0,1.0,71,0.00,,---,0.00,VWS V14.01,2013-05-07 06:52:00,
2013-05-07 02:57:00,57.4,48.1,29.94,North,11,0.0,1.0,71,0.00,,---,0.00,VWS V14.01,2013-05-07 06:57:00,
2013-05-07 03:00:00,57.2,48.3,29.94,North,11,0.0,1.0,72,0.00,,---,0.00,VWS V14.01,2013-05-07 07:00:00,
2013-05-07 03:02:00,57.2,48.6,29.94,North,11,0.0,0.0,73,0.00,,---,0.00,VWS V14.01,2013-05-07 07:02:00,
2013-05-07 03:07:00,57.1,48.5,29.95,North,10,0.0,0.0,73,0.00,,---,0.00,VWS V14.01,2013-05-07 07:07:00,
2013-05-07 03:12:00,57.0,48.1,29.94,North,10,0.0,0.0,72,0.00,,---,0.00,VWS V14.01,2013-05-07 07:12:00,
2013-05-07 03:17:00,56.8,49.0,29.95,North,10,0.0,1.0,75,0.00,,---,0.00,VWS V14.01,2013-05-07 07:17:00,
2013-05-07 03:22:00,56.6,48.8,29.95,North,11,0.0,1.0,75,0.00,,---,0.00,VWS V14.01,2013-05-07 07:22:00,
2013-05-07 03:27:00,56.4,49.3,29.95,North,10,0.0,1.0,77,0.00,,---,0.00,VWS V14.01,2013-05-07 07:27:00,
2013-05-07 03:30:00,56.3,49.5,29.95,North,10,0.0,1.0,78,0.00,,---,0.00,VWS V14.01,2013-05-07 07:30:00,
2013-05-07 03:32:00,56.2,49.1,29.95,North,11,0.0,0.0,77,0.00,,---,0.00,VWS V14.01,2013-05-07 07:32:00,
2013-05-07 03:37:00,56.4,49.3,29.95,East,86,0.0,1.0,77,0.00,,---,0.00,VWS V14.01,2013-05-07 07:37:00,
2013-05-07 03:42:00,56.4,48.2,29.95,East,86,0.0,1.0,74,0.00,,---,0.00,VWS V14.01,2013-05-07 07:42:00,
2013-05-07 03:47:00,56.5,49.0,29.95,NE,45,0.0,1.0,76,0.00,,---,0.00,VWS V14.01,2013-05-07 07:47:00,
2013-05-07 03:52:00,56.3,48.5,29.95,NE,46,0.0,1.0,75,0.00,,---,0.00,VWS V14.01,2013-05-07 07:52:00,
2013-05-07 03:57:00,56.1,48.3,29.95,NE,45,0.0,1.0,75,0.00,,---,0.00,VWS V14.01,2013-05-07 07:57:00,
2013-05-07 04:00:00,56.1,48.3,29.95,NE,45,0.0,1.0,75,0.00,,---,0.00,VWS V14.01,2013-05-07 08:00:00,
2013-05-07 04:02:00,56.0,48.2,29.95,NE,46,0.0,0.0,75,0.00,,---,0.00,VWS V14.01,2013-05-07 08:02:00,
2013-05-07 04:07:00,56.1,48.3,29.95,NE,45,0.0,1.0,75,0.00,,---,0.00,VWS V14.01,2013-05-07 08:07:00,
2013-05-07 04:12:00,56.0,48.2,29.95,NE,45,0.0,1.0,75,0.00,,---,0.00,VWS V14.01,2013-05-07 08:12:00,
2013-05-07 04:17:00,55.8,48.0,29.95,NE,46,0.0,1.0,75,0.00,,---,0.00,VWS V14.01,2013-05-07 08:17:00,
2013-05-07 04:22:00,55.7,48.3,29.95,NE,45,0.0,1.0,76,0.00,,---,0.00,VWS V14.01,2013-05-07 08:22:00,
2013-05-07 04:27:00,55.5,47.7,29.95,NE,45,0.0,1.0,75,0.00,,---,0.00,VWS V14.01,2013-05-07 08:27:00,
2013-05-07 04:30:00,55.4,48.3,29.95,NE,45,0.0,1.0,77,0.00,,---,0.00,VWS V14.01,2013-05-07 08:30:00,
2013-05-07 04:32:00,55.2,47.8,29.95,NE,46,0.0,0.0,76,0.00,,---,0.00,VWS V14.01,2013-05-07 08:32:00,
2013-05-07 04:37:00,54.8,47.7,29.95,NE,45,0.0,0.0,77,0.00,,---,0.00,VWS V14.01,2013-05-07 08:37:00,
2013-05-07 04:42:00,54.3,47.6,29.96,NE,45,0.0,0.0,78,0.00,,---,0.00,VWS V14.01,2013-05-07 08:42:00,
2013-05-07 04:47:00,54.0,47.6,29.96,NE,45,0.0,0.0,79,0.00,,---,0.00,VWS V14.01,2013-05-07 08:47:00,
2013-05-07 04:52:00,53.7,47.7,29.96,NE,45,0.0,0.0,80,0.00,,---,0.00,VWS V14.01,2013-05-07 08:52:00,
2013-05-07 04:57:00,53.2,47.2,29.96,NE,45,0.0,0.0,80,0.00,,---,0.00,VWS V14.01,2013-05-07 08:57:00,
2013-05-07 05:00:00,52.8,46.8,29.96,NE,45,0.0,0.0,80,0.00,,---,0.00,VWS V14.01,2013-05-07 09:00:00,
2013-05-07 05:02:00,52.6,46.9,29.96,NE,46,0.0,0.0,81,0.00,,---,0.00,VWS V14.01,2013-05-07 09:02:00,
2013-05-07 05:07:00,52.0,47.3,29.96,NE,45,0.0,0.0,84,0.00,,---,0.00,VWS V14.01,2013-05-07 09:07:00,
2013-05-07 05:12:00,51.7,47.7,29.96,NE,46,0.0,0.0,86,0.00,,---,0.00,VWS V14.01,2013-05-07 09:12:00,
2013-05-07 05:17:00,51.5,47.8,29.96,ESE,122,0.0,0.0,87,0.00,,---,0.00,VWS V14.01,2013-05-07 09:17:00,
2013-05-07 05:22:00,51.7,47.3,29.96,ESE,122,0.0,0.0,85,0.00,,---,0.00,VWS V14.01,2013-05-07 09:22:00,
2013-05-07 05:27:00,51.5,47.2,29.96,ESE,123,0.0,0.0,85,0.00,,---,0.00,VWS V14.01,2013-05-07 09:27:00,
2013-05-07 05:30:00,51.3,47.3,29.96,ESE,122,0.0,0.0,86,0.00,,---,0.00,VWS V14.01,2013-05-07 09:30:00,
2013-05-07 05:32:00,51.1,47.1,29.96,ESE,122,0.0,0.0,86,0.00,,---,0.00,VWS V14.01,2013-05-07 09:32:00,
2013-05-07 05:37:00,51.0,47.6,29.96,ESE,122,0.0,0.0,88,0.00,,---,0.00,VWS V14.01,2013-05-07 09:37:00,
2013-05-07 05:42:00,51.2,47.5,29.96,ESE,123,0.0,0.0,87,0.00,,---,0.00,VWS V14.01,2013-05-07 09:42:00,
2013-05-07 05:47:00,51.0,47.3,29.97,ESE,122,0.0,0.0,87,0.00,,---,0.00,VWS V14.01,2013-05-07 09:47:00,
2013-05-07 05:52:00,51.1,47.7,29.97,ESE,122,0.0,0.0,88,0.00,,---,0.00,VWS V14.01,2013-05-07 09:52:00,
2013-05-07 05:57:00,51.0,47.3,29.97,ESE,123,0.0,0.0,87,0.00,,---,0.00,VWS V14.01,2013-05-07 09:57:00,
2013-05-07 06:00:00,50.8,46.8,29.97,ESE,122,0.0,0.0,86,0.00,,---,0.00,VWS V14.01,2013-05-07 10:00:00,
2013-05-07 06:02:00,50.7,47.0,29.97,ESE,122,0.0,0.0,87,0.00,,---,0.00,VWS V14.01,2013-05-07 10:02:00,
2013-05-07 06:07:00,50.3,46.6,29.97,ESE,122,0.0,0.0,87,0.00,,---,0.00,VWS V14.01,2013-05-07 10:07:00,
2013-05-07 06:12:00,49.9,46.5,29.97,ESE,122,0.0,0.0,88,0.00,,---,0.00,VWS V14.01,2013-05-07 10:12:00,
2013-05-07 06:17:00,49.5,46.4,29.97,ESE,122,0.0,0.0,89,0.00,,---,0.00,VWS V14.01,2013-05-07 10:17:00,
2013-05-07 06:22:00,49.4,46.3,29.97,ESE,122,0.0,0.0,89,0.00,,---,0.00,VWS V14.01,2013-05-07 10:22:00,
2013-05-07 06:27:00,49.1,46.0,29.98,ESE,122,0.0,0.0,89,0.00,,---,0.00,VWS V14.01,2013-05-07 10:27:00,
2013-05-07 06:30:00,48.9,46.1,29.98,ESE,122,0.0,0.0,90,0.00,,---,0.00,VWS V14.01,2013-05-07 10:30:00,
2013-05-07 06:32:00,48.8,46.0,29.98,ESE,122,0.0,0.0,90,0.00,,---,0.00,VWS V14.01,2013-05-07 10:32:00,
2013-05-07 06:37:00,48.7,46.2,29.98,ESE,123,0.0,0.0,91,0.00,,---,0.00,VWS V14.01,2013-05-07 10:37:00,
2013-05-07 06:42:00,48.7,46.5,29.98,ESE,122,0.0,0.0,92,0.00,,---,0.00,VWS V14.01,2013-05-07 10:42:00,
2013-05-07 06:47:00,48.9,46.7,29.98,ESE,123,0.0,0.0,92,0.00,,---,0.00,VWS V14.01,2013-05-07 10:47:00,
2013-05-07 06:52:00,49.0,46.8,29.98,ESE,122,0.0,0.0,92,0.00,,---,0.00,VWS V14.01,2013-05-07 10:52:00,
2013-05-07 06:58:00,49.2,47.0,29.98,ESE,122,0.0,0.0,92,0.00,,---,0.00,VWS V14.01,2013-05-07 10:58:00,
2013-05-07 07:00:00,49.3,47.1,29.98,ESE,123,0.0,0.0,92,0.00,,---,0.00,VWS V14.01,2013-05-07 11:00:00,
2013-05-07 07:03:00,49.3,47.1,29.98,ESE,122,0.0,0.0,92,0.00,,---,0.00,VWS V14.01,2013-05-07 11:03:00,
2013-05-07 07:08:00,49.4,47.2,29.99,ESE,122,0.0,0.0,92,0.00,,---,0.00,VWS V14.01,2013-05-07 11:08:00,
2013-05-07 07:13:00,49.9,47.7,29.99,SSE,158,0.0,0.0,92,0.00,,---,0.00,VWS V14.01,2013-05-07 11:13:00,
2013-05-07 07:18:00,50.4,47.6,29.99,SSE,148,0.0,1.0,90,0.00,,---,0.00,VWS V14.01,2013-05-07 11:18:00,
2013-05-07 07:23:00,50.8,47.7,29.99,SSE,148,0.0,1.0,89,0.00,,---,0.00,VWS V14.01,2013-05-07 11:23:00,
2013-05-07 07:28:00,50.9,47.5,29.99,SSE,148,0.0,1.0,88,0.00,,---,0.00,VWS V14.01,2013-05-07 11:28:00,
2013-05-07 07:30:00,51.0,47.6,30.00,SE,145,0.0,1.0,88,0.00,,---,0.00,VWS V14.01,2013-05-07 11:30:00,
2013-05-07 07:33:00,51.1,47.7,30.00,SE,146,0.0,0.0,88,0.00,,---,0.00,VWS V14.01,2013-05-07 11:33:00,
2013-05-07 07:38:00,51.4,47.7,29.99,SE,145,0.0,0.0,87,0.00,,---,0.00,VWS V14.01,2013-05-07 11:38:00,
2013-05-07 07:43:00,52.1,47.7,29.99,South,191,0.0,1.0,85,0.00,,---,0.00,VWS V14.01,2013-05-07 11:43:00,
2013-05-07 07:48:00,52.8,48.4,29.99,SSW,192,0.0,1.0,85,0.00,,---,0.00,VWS V14.01,2013-05-07 11:48:00,
2013-05-07 07:53:00,53.5,48.2,30.00,South,173,0.0,1.0,82,0.00,,---,0.00,VWS V14.01,2013-05-07 11:53:00,
2013-05-07 07:58:00,54.0,48.0,30.00,SW,222,0.0,1.0,80,0.00,,---,0.00,VWS V14.01,2013-05-07 11:58:00,
2013-05-07 08:00:00,54.1,47.4,30.00,SW,222,0.0,1.0,78,0.00,,---,0.00,VWS V14.01,2013-05-07 12:00:00,
2013-05-07 08:03:00,54.2,47.8,30.00,SW,222,0.0,1.0,79,0.00,,---,0.00,VWS V14.01,2013-05-07 12:03:00,
2013-05-07 08:08:00,54.3,47.9,29.99,NW,323,0.0,1.0,79,0.00,,---,0.00,VWS V14.01,2013-05-07 12:08:00,
2013-05-07 08:13:00,54.4,48.0,30.00,NNW,342,2.0,2.0,79,0.00,,---,0.00,VWS V14.01,2013-05-07 12:13:00,
2013-05-07 08:18:00,54.6,48.2,30.00,NNW,337,0.0,2.0,79,0.00,,---,0.00,VWS V14.01,2013-05-07 12:18:00,
2013-05-07 08:23:00,54.9,48.2,30.00,NNE,33,1.0,2.0,78,0.00,,---,0.00,VWS V14.01,2013-05-07 12:23:00,
2013-05-07 08:28:00,55.5,48.4,30.00,NNE,30,0.0,2.0,77,0.00,,---,0.00,VWS V14.01,2013-05-07 12:28:00,
2013-05-07 08:30:00,55.9,49.2,30.00,NNW,343,0.0,2.0,78,0.00,,---,0.00,VWS V14.01,2013-05-07 12:30:00,
2013-05-07 08:33:00,56.3,49.2,30.00,North,356,1.0,2.0,77,0.00,,---,0.00,VWS V14.01,2013-05-07 12:33:00,
2013-05-07 08:38:00,57.0,49.9,30.00,NE,41,0.0,2.0,77,0.00,,---,0.00,VWS V14.01,2013-05-07 12:38:00,
2013-05-07 08:43:00,57.9,49.3,30.00,East,81,0.0,2.0,73,0.00,,---,0.00,VWS V14.01,2013-05-07 12:43:00,
2013-05-07 08:48:00,58.3,49.3,30.00,North,349,1.0,3.0,72,0.00,,---,0.00,VWS V14.01,2013-05-07 12:48:00,
2013-05-07 08:53:00,58.6,48.9,30.00,NNW,343,3.0,3.0,70,0.00,,---,0.00,VWS V14.01,2013-05-07 12:53:00,
2013-05-07 08:58:00,58.7,49.3,30.00,NNW,330,1.0,4.0,71,0.00,,---,0.00,VWS V14.01,2013-05-07 12:58:00,
2013-05-07 09:00:00,58.9,49.2,30.00,North,4,0.0,4.0,70,0.00,,---,0.00,VWS V14.01,2013-05-07 13:00:00,
2013-05-07 09:03:00,59.2,49.0,30.00,North,6,3.0,5.0,69,0.00,,---,0.00,VWS V14.01,2013-05-07 13:03:00,
2013-05-07 09:08:00,59.5,50.1,30.00,NNW,340,2.0,5.0,71,0.00,,---,0.00,VWS V14.01,2013-05-07 13:08:00,
2013-05-07 09:13:00,59.9,49.7,30.00,NNE,22,0.0,5.0,69,0.00,,---,0.00,VWS V14.01,2013-05-07 13:13:00,
2013-05-07 09:18:00,60.5,50.7,30.00,NNE,23,1.0,5.0,70,0.00,,---,0.00,VWS V14.01,2013-05-07 13:18:00,
2013-05-07 09:23:00,61.0,50.4,30.01,North,359,1.0,5.0,68,0.00,,---,0.00,VWS V14.01,2013-05-07 13:23:00,
2013-05-07 09:28:00,61.4,50.4,30.01,ENE,68,0.0,5.0,67,0.00,,---,0.00,VWS V14.01,2013-05-07 13:28:00,
2013-05-07 09:30:00,61.6,51.0,30.01,North,352,3.0,5.0,68,0.00,,---,0.00,VWS V14.01,2013-05-07 13:30:00,
2013-05-07 09:33:00,61.6,51.0,30.00,North,6,2.0,4.0,68,0.00,,---,0.00,VWS V14.01,2013-05-07 13:33:00,
2013-05-07 09:38:00,61.9,50.8,30.00,NNE,18,1.0,4.0,67,0.00,,---,0.00,VWS V14.01,2013-05-07 13:38:00,
2013-05-07 09:43:00,62.3,51.6,30.00,NNE,32,0.0,4.0,68,0.00,,---,0.00,VWS V14.01,2013-05-07 13:43:00,
2013-05-07 09:48:00,62.6,51.5,30.00,North,6,3.0,4.0,67,0.00,,---,0.00,VWS V14.01,2013-05-07 13:48:00,
2013-05-07 09:53:00,62.9,51.8,30.00,NNW,346,4.0,5.0,67,0.00,,---,0.00,VWS V14.01,2013-05-07 13:53:00,
2013-05-07 09:58:00,63.1,51.6,30.00,NNW,343,2.0,5.0,66,0.00,,---,0.00,VWS V14.01,2013-05-07 13:58:00,
2013-05-07 10:00:00,63.2,52.1,30.00,North,352,2.0,5.0,67,0.00,,---,0.00,VWS V14.01,2013-05-07 14:00:00,
2013-05-07 10:03:00,63.2,52.1,30.00,NW,322,3.0,6.0,67,0.00,,---,0.00,VWS V14.01,2013-05-07 14:03:00,
2013-05-07 10:08:00,63.4,52.7,30.00,NNW,329,4.0,6.0,68,0.00,,---,0.00,VWS V14.01,2013-05-07 14:08:00,
2013-05-07 10:13:00,63.9,53.1,30.00,NNW,348,2.0,6.0,68,0.00,,---,0.00,VWS V14.01,2013-05-07 14:13:00,
2013-05-07 10:18:00,64.3,53.1,30.00,NNW,340,1.0,6.0,67,0.00,,---,0.00,VWS V14.01,2013-05-07 14:18:00,
2013-05-07 10:23:00,64.6,53.4,30.00,NNW,347,3.0,7.0,67,0.00,,---,0.00,VWS V14.01,2013-05-07 14:23:00,
2013-05-07 10:28:00,64.8,54.0,29.99,NE,46,1.0,8.0,68,0.00,,---,0.00,VWS V14.01,2013-05-07 14:28:00,
2013-05-07 10:30:00,64.9,53.7,29.99,North,8,4.0,8.0,67,0.00,,---,0.00,VWS V14.01,2013-05-07 14:30:00,
2013-05-07 10:33:00,65.1,53.9,29.99,ENE,64,3.0,4.0,67,0.00,,---,0.00,VWS V14.01,2013-05-07 14:33:00,
2013-05-07 10:38:00,65.3,53.7,29.99,NNE,18,2.0,7.0,66,0.00,,---,0.00,VWS V14.01,2013-05-07 14:38:00,
2013-05-07 10:43:00,65.6,54.8,29.99,NW,306,1.0,7.0,68,0.00,,---,0.00,VWS V14.01,2013-05-07 14:43:00,
2013-05-07 10:48:00,66.2,54.9,30.00,NNW,336,1.0,7.0,67,0.00,,---,0.00,VWS V14.01,2013-05-07 14:48:00,
2013-05-07 10:53:00,66.9,54.8,29.99,North,11,2.0,7.0,65,0.00,,---,0.00,VWS V14.01,2013-05-07 14:53:00,
2013-05-07 10:58:00,66.8,54.2,29.99,NNW,334,1.0,8.0,64,0.00,,---,0.00,VWS V14.01,2013-05-07 14:58:00,
2013-05-07 11:00:00,67.0,54.9,29.99,NE,51,0.0,8.0,65,0.00,,---,0.00,VWS V14.01,2013-05-07 15:00:00,
2013-05-07 11:03:00,67.6,55.4,29.99,NNE,16,4.0,7.0,65,0.00,,---,0.00,VWS V14.01,2013-05-07 15:03:00,
2013-05-07 11:08:00,68.1,55.5,29.99,NNE,22,3.0,7.0,64,0.00,,---,0.00,VWS V14.01,2013-05-07 15:08:00,
2013-05-07 11:13:00,68.8,55.7,29.99,NW,309,1.0,7.0,63,0.00,,---,0.00,VWS V14.01,2013-05-07 15:13:00,
2013-05-07 11:18:00,69.4,57.1,29.99,NNW,343,6.0,7.0,65,0.00,,---,0.00,VWS V14.01,2013-05-07 15:18:00,
2013-05-07 11:23:00,68.9,54.0,29.99,NW,316,2.0,10.0,59,0.00,,---,0.00,VWS V14.01,2013-05-07 15:23:00,
2013-05-07 11:28:00,69.2,55.6,29.99,North,356,7.0,10.0,62,0.00,,---,0.00,VWS V14.01,2013-05-07 15:28:00,
2013-05-07 11:30:00,69.1,54.7,29.99,NNW,331,8.0,10.0,60,0.00,,---,0.00,VWS V14.01,2013-05-07 15:30:00,
2013-05-07 11:33:00,69.0,54.5,29.99,NNE,20,5.0,9.0,60,0.00,,---,0.00,VWS V14.01,2013-05-07 15:33:00,
2013-05-07 11:38:00,68.9,54.9,29.99,NE,34,2.0,9.0,61,0.00,,---,0.00,VWS V14.01,2013-05-07 15:38:00,
2013-05-07 11:43:00,69.2,55.2,29.99,NW,309,4.0,9.0,61,0.00,,---,0.00,VWS V14.01,2013-05-07 15:43:00,
2013-05-07 11:49:00,69.8,55.3,29.99,NW,315,2.0,9.0,60,0.00,,---,0.00,VWS V14.01,2013-05-07 15:49:00,
2013-05-07 11:54:00,69.9,54.5,29.99,ENE,68,1.0,9.0,58,0.00,,---,0.00,VWS V14.01,2013-05-07 15:54:00,
2013-05-07 11:58:00,70.1,56.9,29.98,ENE,70,2.0,9.0,63,0.00,,---,0.00,VWS V14.01,2013-05-07 15:58:00,
2013-05-07 12:00:00,70.4,55.4,29.98,NNE,12,2.0,9.0,59,0.00,,---,0.00,VWS V14.01,2013-05-07 16:00:00,
2013-05-07 12:04:00,70.8,55.8,29.98,North,352,2.0,11.0,59,0.00,,---,0.00,VWS V14.01,2013-05-07 16:04:00,
2013-05-07 12:09:00,71.2,54.7,29.98,ESE,120,3.0,11.0,56,0.00,,---,0.00,VWS V14.01,2013-05-07 16:09:00,
2013-05-07 12:14:00,71.1,55.1,29.98,SSE,155,4.0,12.0,57,0.00,,---,0.00,VWS V14.01,2013-05-07 16:14:00,
2013-05-07 12:19:00,71.6,53.6,29.98,East,81,1.0,12.0,53,0.00,,---,0.00,VWS V14.01,2013-05-07 16:19:00,
2013-05-07 12:24:00,72.0,54.0,29.98,NNE,16,1.0,12.0,53,0.00,,---,0.00,VWS V14.01,2013-05-07 16:24:00,
2013-05-07 12:29:00,71.2,53.7,29.98,NNW,330,6.0,12.0,54,0.00,,---,0.00,VWS V14.01,2013-05-07 16:29:00,
2013-05-07 12:30:00,71.2,54.2,29.98,NNW,332,4.0,12.0,55,0.00,,---,0.00,VWS V14.01,2013-05-07 16:30:00,
2013-05-07 12:34:00,72.1,57.0,29.98,NNW,342,1.0,6.0,59,0.00,,---,0.00,VWS V14.01,2013-05-07 16:34:00,
2013-05-07 12:39:00,73.1,55.0,29.98,WNW,294,3.0,11.0,53,0.00,,---,0.00,VWS V14.01,2013-05-07 16:39:00,
2013-05-07 12:44:00,73.1,53.9,29.98,SE,136,3.0,11.0,51,0.00,,---,0.00,VWS V14.01,2013-05-07 16:44:00,
2013-05-07 12:49:00,72.7,55.6,29.98,East,79,4.0,11.0,55,0.00,,---,0.00,VWS V14.01,2013-05-07 16:49:00,
2013-05-07 12:54:00,72.2,55.2,29.98,WNW,300,1.0,13.0,55,0.00,,---,0.00,VWS V14.01,2013-05-07 16:54:00,
2013-05-07 12:59:00,72.1,55.1,29.97,NE,49,3.0,13.0,55,0.00,,---,0.00,VWS V14.01,2013-05-07 16:59:00,
2013-05-07 13:00:00,72.1,53.5,29.97,NE,38,2.0,13.0,52,0.00,,---,0.00,VWS V14.01,2013-05-07 17:00:00,
2013-05-07 13:04:00,71.9,53.9,29.97,ESE,116,2.0,7.0,53,0.00,,---,0.00,VWS V14.01,2013-05-07 17:04:00,
2013-05-07 13:09:00,72.1,55.1,29.97,NNW,332,5.0,11.0,55,0.00,,---,0.00,VWS V14.01,2013-05-07 17:09:00,
2013-05-07 13:14:00,72.4,54.3,29.97,North,11,5.0,11.0,53,0.00,,---,0.00,VWS V14.01,2013-05-07 17:14:00,
2013-05-07 13:19:00,72.0,52.9,29.97,NNE,14,2.0,11.0,51,0.00,,---,0.00,VWS V14.01,2013-05-07 17:19:00,
2013-05-07 13:24:00,71.8,53.8,29.97,NW,314,3.0,11.0,53,0.00,,---,0.00,VWS V14.01,2013-05-07 17:24:00,
2013-05-07 13:29:00,71.9,53.3,29.97,West,274,1.0,14.0,52,0.00,,---,0.00,VWS V14.01,2013-05-07 17:29:00,
2013-05-07 13:30:00,72.2,54.7,29.97,East,84,2.0,14.0,54,0.00,,---,0.00,VWS V14.01,2013-05-07 17:30:00,
2013-05-07 13:34:00,72.9,53.2,29.97,ENE,59,5.0,7.0,50,0.00,,---,0.00,VWS V14.01,2013-05-07 17:34:00,
2013-05-07 13:39:00,73.5,55.9,29.97,SE,136,2.0,10.0,54,0.00,,---,0.00,VWS V14.01,2013-05-07 17:39:00,
2013-05-07 13:44:00,73.6,53.3,29.97,NE,51,2.0,11.0,49,0.00,,---,0.00,VWS V14.01,2013-05-07 17:44:00,
2013-05-07 13:49:00,73.4,54.7,29.97,NW,309,6.0,11.0,52,0.00,,---,0.00,VWS V14.01,2013-05-07 17:49:00,
2013-05-07 13:54:00,72.9,54.8,29.97,NNE,18,3.0,13.0,53,0.00,,---,0.00,VWS V14.01,2013-05-07 17:54:00,
2013-05-07 13:59:00,72.5,53.9,29.97,SSE,152,4.0,13.0,52,0.00,,---,0.00,VWS V14.01,2013-05-07 17:59:00,
2013-05-07 14:00:00,72.5,55.4,29.97,NW,324,2.0,13.0,55,0.00,,---,0.00,VWS V14.01,2013-05-07 18:00:00,
2013-05-07 14:04:00,73.3,55.7,29.97,North,10,1.0,7.0,54,0.00,,---,0.00,VWS V14.01,2013-05-07 18:04:00,
2013-05-07 14:09:00,73.4,54.2,29.96,NE,37,5.0,9.0,51,0.00,,---,0.00,VWS V14.01,2013-05-07 18:09:00,
2013-05-07 14:14:00,72.2,54.1,29.97,NNE,12,1.0,15.0,53,0.00,,---,0.00,VWS V14.01,2013-05-07 18:14:00,
2013-05-07 14:19:00,72.0,54.5,29.97,NE,49,9.0,15.0,54,0.00,,---,0.00,VWS V14.01,2013-05-07 18:19:00,
2013-05-07 14:24:00,72.7,56.1,29.97,ESE,122,5.0,15.0,56,0.00,,---,0.00,VWS V14.01,2013-05-07 18:24:00,
2013-05-07 14:29:00,73.3,56.2,29.96,SSE,165,2.0,15.0,55,0.00,,---,0.00,VWS V14.01,2013-05-07 18:29:00,
2013-05-07 14:30:00,73.5,55.3,29.96,ENE,66,6.0,15.0,53,0.00,,---,0.00,VWS V14.01,2013-05-07 18:30:00,
2013-05-07 14:34:00,73.6,54.9,29.97,East,86,3.0,6.0,52,0.00,,---,0.00,VWS V14.01,2013-05-07 18:34:00,
2013-05-07 14:39:00,73.0,54.9,29.97,ENE,78,1.0,16.0,53,0.00,,---,0.00,VWS V14.01,2013-05-07 18:39:00,
2013-05-07 14:44:00,72.6,55.0,29.97,North,352,4.0,16.0,54,0.00,,---,0.00,VWS V14.01,2013-05-07 18:44:00,
2013-05-07 14:49:00,72.4,55.8,29.96,NNW,338,5.0,16.0,56,0.00,,---,0.00,VWS V14.01,2013-05-07 18:49:00,
2013-05-07 14:54:00,72.6,55.5,29.96,ESE,113,2.0,16.0,55,0.00,,---,0.00,VWS V14.01,2013-05-07 18:54:00,
2013-05-07 14:59:00,72.6,55.0,29.96,North,1,2.0,16.0,54,0.00,,---,0.00,VWS V14.01,2013-05-07 18:59:00,
2013-05-07 15:00:00,72.6,56.0,29.96,West,281,2.0,16.0,56,0.00,,---,0.00,VWS V14.01,2013-05-07 19:00:00,
2013-05-07 15:04:00,72.7,55.6,29.96,NNW,344,6.0,9.0,55,0.00,,---,0.00,VWS V14.01,2013-05-07 19:04:00,
2013-05-07 15:09:00,72.5,54.4,29.96,North,360,4.0,11.0,53,0.00,,---,0.00,VWS V14.01,2013-05-07 19:09:00,
2013-05-07 15:14:00,72.5,56.4,29.96,East,88,5.0,11.0,57,0.00,,---,0.00,VWS V14.01,2013-05-07 19:14:00,
2013-05-07 15:19:00,72.6,54.5,29.96,ESE,107,1.0,11.0,53,0.00,,---,0.00,VWS V14.01,2013-05-07 19:19:00,
2013-05-07 15:24:00,72.4,55.8,29.95,ENE,62,5.0,11.0,56,0.00,,---,0.00,VWS V14.01,2013-05-07 19:24:00,
2013-05-07 15:29:00,71.9,54.9,29.95,NW,324,5.0,11.0,55,0.00,,---,0.00,VWS V14.01,2013-05-07 19:29:00,
2013-05-07 15:30:00,71.8,54.3,29.95,NNW,340,3.0,11.0,54,0.00,,---,0.00,VWS V14.01,2013-05-07 19:30:00,
2013-05-07 15:34:00,71.8,54.8,29.95,ENE,63,2.0,6.0,55,0.00,,---,0.00,VWS V14.01,2013-05-07 19:34:00,
2013-05-07 15:39:00,71.9,54.9,29.95,NNE,13,5.0,7.0,55,0.00,,---,0.00,VWS V14.01,2013-05-07 19:39:00,
2013-05-07 15:44:00,71.9,54.9,29.95,NW,326,3.0,7.0,55,0.00,,---,0.00,VWS V14.01,2013-05-07 19:44:00,
2013-05-07 15:49:00,71.6,55.1,29.95,NE,47,1.0,13.0,56,0.00,,---,0.00,VWS V14.01,2013-05-07 19:49:00,
2013-05-07 15:54:00,71.4,54.4,29.95,North,6,1.0,13.0,55,0.00,,---,0.00,VWS V14.01,2013-05-07 19:54:00,
2013-05-07 15:59:00,71.4,53.9,29.95,NE,49,0.0,13.0,54,0.00,,---,0.00,VWS V14.01,2013-05-07 19:59:00,
2013-05-07 16:00:00,71.5,54.0,29.95,NE,37,2.0,13.0,54,0.00,,---,0.00,VWS V14.01,2013-05-07 20:00:00,
2013-05-07 16:04:00,71.7,55.2,29.95,SE,141,0.0,7.0,56,0.00,,---,0.00,VWS V14.01,2013-05-07 20:04:00,
2013-05-07 16:09:00,72.3,55.2,29.94,NNW,343,2.0,7.0,55,0.00,,---,0.00,VWS V14.01,2013-05-07 20:09:00,
2013-05-07 16:14:00,72.4,54.8,29.95,ENE,78,0.0,7.0,54,0.00,,---,0.00,VWS V14.01,2013-05-07 20:14:00,
2013-05-07 16:19:00,72.5,53.9,29.94,North,1,2.0,8.0,52,0.00,,---,0.00,VWS V14.01,2013-05-07 20:19:00,
2013-05-07 16:24:00,72.7,54.6,29.94,NW,304,2.0,8.0,53,0.00,,---,0.00,VWS V14.01,2013-05-07 20:24:00,
2013-05-07 16:29:00,72.7,54.6,29.94,NNE,19,6.0,14.0,53,0.00,,---,0.00,VWS V14.01,2013-05-07 20:29:00,
2013-05-07 16:30:00,72.7,54.6,29.94,WNW,295,2.0,14.0,53,0.00,,---,0.00,VWS V14.01,2013-05-07 20:30:00,
2013-05-07 16:34:00,72.7,55.1,29.94,North,354,1.0,7.0,54,0.00,,---,0.00,VWS V14.01,2013-05-07 20:34:00,
2013-05-07 16:39:00,72.8,54.2,29.94,NNW,339,5.0,9.0,52,0.00,,---,0.00,VWS V14.01,2013-05-07 20:39:00,
2013-05-07 16:44:00,72.8,53.6,29.94,NW,326,0.0,9.0,51,0.00,,---,0.00,VWS V14.01,2013-05-07 20:44:00,
2013-05-07 16:49:00,72.8,54.2,29.94,West,270,1.0,9.0,52,0.00,,---,0.00,VWS V14.01,2013-05-07 20:49:00,
2013-05-07 16:54:00,73.1,54.5,29.94,North,5,5.0,9.0,52,0.00,,---,0.00,VWS V14.01,2013-05-07 20:54:00,
2013-05-07 16:59:00,73.0,53.3,29.94,NNW,333,2.0,9.0,50,0.00,,---,0.00,VWS V14.01,2013-05-07 20:59:00,
2013-05-07 17:00:00,72.9,53.2,29.94,East,92,3.0,9.0,50,0.00,,---,0.00,VWS V14.01,2013-05-07 21:00:00,
2013-05-07 17:04:00,72.9,54.3,29.93,NW,314,2.0,4.0,52,0.00,,---,0.00,VWS V14.01,2013-05-07 21:04:00,
2013-05-07 17:09:00,72.9,55.3,29.94,NNE,26,4.0,7.0,54,0.00,,---,0.00,VWS V14.01,2013-05-07 21:09:00,
2013-05-07 17:14:00,73.0,54.4,29.94,North,356,2.0,8.0,52,0.00,,---,0.00,VWS V14.01,2013-05-07 21:14:00,
2013-05-07 17:19:00,72.9,54.8,29.94,ESE,118,1.0,8.0,53,0.00,,---,0.00,VWS V14.01,2013-05-07 21:19:00,
2013-05-07 17:24:00,73.1,55.5,29.94,ENE,75,0.0,8.0,54,0.00,,---,0.00,VWS V14.01,2013-05-07 21:24:00,
2013-05-07 17:29:00,72.9,54.8,29.94,NNW,335,4.0,8.0,53,0.00,,---,0.00,VWS V14.01,2013-05-07 21:29:00,
2013-05-07 17:30:00,72.8,54.7,29.94,NNW,342,7.0,8.0,53,0.00,,---,0.00,VWS V14.01,2013-05-07 21:30:00,
2013-05-07 17:34:00,72.6,54.0,29.94,North,359,4.0,10.0,52,0.00,,---,0.00,VWS V14.01,2013-05-07 21:34:00,
2013-05-07 17:40:00,72.7,53.5,29.94,NE,40,2.0,10.0,51,0.00,,---,0.00,VWS V14.01,2013-05-07 21:40:00,
2013-05-07 17:45:00,73.2,55.6,29.93,NE,49,3.0,10.0,54,0.00,,---,0.00,VWS V14.01,2013-05-07 21:45:00,
2013-05-07 17:50:00,73.3,53.6,29.93,ESE,114,3.0,10.0,50,0.00,,---,0.00,VWS V14.01,2013-05-07 21:50:00,
2013-05-07 17:55:00,73.1,52.8,29.93,NW,326,1.0,10.0,49,0.00,,---,0.00,VWS V14.01,2013-05-07 21:55:00,
2013-05-07 18:00:00,73.0,52.7,29.93,NNE,32,3.0,10.0,49,0.00,,---,0.00,VWS V14.01,2013-05-07 22:00:00,
2013-05-07 18:05:00,72.8,54.2,29.93,NE,39,2.0,6.0,52,0.00,,---,0.00,VWS V14.01,2013-05-07 22:05:00,
2013-05-07 18:10:00,72.7,54.6,29.93,NE,41,0.0,6.0,53,0.00,,---,0.00,VWS V14.01,2013-05-07 22:10:00,
2013-05-07 18:15:00,72.9,54.3,29.93,ENE,59,2.0,6.0,52,0.00,,---,0.00,VWS V14.01,2013-05-07 22:15:00,
2013-05-07 18:20:00,72.8,53.6,29.93,ENE,66,2.0,8.0,51,0.00,,---,0.00,VWS V14.01,2013-05-07 22:20:00,
2013-05-07 18:25:00,72.8,53.6,29.93,NW,308,0.0,8.0,51,0.00,,---,0.00,VWS V14.01,2013-05-07 22:25:00,
2013-05-07 18:30:00,72.5,53.9,29.93,NNE,13,1.0,8.0,52,0.00,,---,0.00,VWS V14.01,2013-05-07 22:30:00,
2013-05-07 18:35:00,72.5,53.9,29.93,NNW,330,1.0,7.0,52,0.00,,---,0.00,VWS V14.01,2013-05-07 22:35:00,
2013-05-07 18:40:00,72.7,54.1,29.93,NNW,329,2.0,7.0,52,0.00,,---,0.00,VWS V14.01,2013-05-07 22:40:00,
2013-05-07 18:45:00,72.7,53.5,29.93,North,8,2.0,7.0,51,0.00,,---,0.00,VWS V14.01,2013-05-07 22:45:00,
2013-05-07 18:50:00,72.8,53.6,29.93,North,352,0.0,7.0,51,0.00,,---,0.00,VWS V14.01,2013-05-07 22:50:00,
2013-05-07 18:55:00,73.2,53.5,29.93,North,355,2.0,7.0,50,0.00,,---,0.00,VWS V14.01,2013-05-07 22:55:00,
2013-05-07 19:00:00,73.7,55.0,29.93,ENE,68,0.0,7.0,52,0.00,,---,0.00,VWS V14.01,2013-05-07 23:00:00,
2013-05-07 19:05:00,74.0,54.7,29.93,ESE,104,0.0,4.0,51,0.00,,---,0.00,VWS V14.01,2013-05-07 23:05:00,
2013-05-07 19:10:00,74.2,53.8,29.93,NNE,29,0.0,4.0,49,0.00,,---,0.00,VWS V14.01,2013-05-07 23:10:00,
2013-05-07 19:15:00,73.8,53.5,29.93,NW,322,3.0,6.0,49,0.00,,---,0.00,VWS V14.01,2013-05-07 23:15:00,
2013-05-07 19:20:00,73.0,53.3,29.93,NNW,338,2.0,7.0,50,0.00,,---,0.00,VWS V14.01,2013-05-07 23:20:00,
2013-05-07 19:25:00,72.5,54.4,29.93,NNW,344,3.0,7.0,53,0.00,,---,0.00,VWS V14.01,2013-05-07 23:25:00,
2013-05-07 19:30:00,72.5,53.9,29.93,North,5,8.0,8.0,52,0.00,,---,0.00,VWS V14.01,2013-05-07 23:30:00,
2013-05-07 19:35:00,72.7,54.6,29.93,ESE,107,6.0,7.0,53,0.00,,---,0.00,VWS V14.01,2013-05-07 23:35:00,
2013-05-07 19:40:00,72.8,53.6,29.93,NNE,33,1.0,8.0,51,0.00,,---,0.00,VWS V14.01,2013-05-07 23:40:00,
2013-05-07 19:45:00,72.5,53.9,29.94,ENE,61,1.0,8.0,52,0.00,,---,0.00,VWS V14.01,2013-05-07 23:45:00,
2013-05-07 19:50:00,72.2,53.6,29.94,WNW,283,1.0,8.0,52,0.00,,---,0.00,VWS V14.01,2013-05-07 23:50:00,
2013-05-07 19:55:00,71.8,53.2,29.94,ESE,118,0.0,8.0,52,0.00,,---,0.00,VWS V14.01,2013-05-07 23:55:00,
2013-05-07 20:00:00,71.4,52.9,29.94,NE,41,3.0,8.0,52,0.00,,---,0.00,VWS V14.01,2013-05-08 00:00:00,
2013-05-07 20:05:00,71.0,53.0,29.94,NNE,18,1.0,2.0,53,0.00,,---,0.00,VWS V14.01,2013-05-08 00:05:00,
2013-05-07 20:10:00,70.5,53.1,29.94,East,86,0.0,4.0,54,0.00,,---,0.00,VWS V14.01,2013-05-08 00:10:00,
2013-05-07 20:15:00,69.9,52.5,29.94,ENE,60,0.0,4.0,54,0.00,,---,0.00,VWS V14.01,2013-05-08 00:15:00,
2013-05-07 20:20:00,69.3,52.5,29.94,NNE,27,1.0,4.0,55,0.00,,---,0.00,VWS V14.01,2013-05-08 00:20:00,
2013-05-07 20:25:00,68.8,52.5,29.94,NE,49,0.0,4.0,56,0.00,,---,0.00,VWS V14.01,2013-05-08 00:25:00,
2013-05-07 20:30:00,68.4,53.1,29.94,NE,44,0.0,4.0,58,0.00,,---,0.00,VWS V14.01,2013-05-08 00:30:00,
2013-05-07 20:35:00,67.8,52.5,29.95,ENE,62,0.0,1.0,58,0.00,,---,0.00,VWS V14.01,2013-05-08 00:35:00,
2013-05-07 20:40:00,67.4,52.6,29.95,ENE,63,0.0,1.0,59,0.00,,---,0.00,VWS V14.01,2013-05-08 00:40:00,
2013-05-07 20:45:00,66.7,52.4,29.95,ENE,63,0.0,1.0,60,0.00,,---,0.00,VWS V14.01,2013-05-08 00:45:00,
2013-05-07 20:50:00,65.9,52.1,29.95,ENE,63,0.0,1.0,61,0.00,,---,0.00,VWS V14.01,2013-05-08 00:50:00,
2013-05-07 20:55:00,65.0,52.5,29.95,ENE,62,0.0,1.0,64,0.00,,---,0.00,VWS V14.01,2013-05-08 00:55:00,
2013-05-07 21:00:00,64.5,52.5,29.95,ENE,63,0.0,1.0,65,0.00,,---,0.00,VWS V14.01,2013-05-08 01:00:00,
2013-05-07 21:05:00,64.2,52.2,29.95,ENE,63,0.0,0.0,65,0.00,,---,0.00,VWS V14.01,2013-05-08 01:05:00,
2013-05-07 21:10:00,64.2,52.6,29.96,ENE,63,0.0,0.0,66,0.00,,---,0.00,VWS V14.01,2013-05-08 01:10:00,
2013-05-07 21:15:00,64.1,52.5,29.96,East,96,0.0,1.0,66,0.00,,---,0.00,VWS V14.01,2013-05-08 01:15:00,
2013-05-07 21:20:00,63.8,52.7,29.96,East,96,0.0,1.0,67,0.00,,---,0.00,VWS V14.01,2013-05-08 01:20:00,
2013-05-07 21:25:00,63.4,52.7,29.96,East,96,0.0,1.0,68,0.00,,---,0.00,VWS V14.01,2013-05-08 01:25:00,
2013-05-07 21:30:00,62.7,52.4,29.96,East,96,0.0,1.0,69,0.00,,---,0.00,VWS V14.01,2013-05-08 01:30:00,
2013-05-07 21:35:00,62.1,52.2,29.97,East,96,0.0,0.0,70,0.00,,---,0.00,VWS V14.01,2013-05-08 01:35:00,
2013-05-07 21:40:00,61.5,52.0,29.97,East,96,0.0,0.0,71,0.00,,---,0.00,VWS V14.01,2013-05-08 01:40:00,
2013-05-07 21:45:00,61.0,51.9,29.97,East,96,0.0,0.0,72,0.00,,---,0.00,VWS V14.01,2013-05-08 01:45:00,
2013-05-07 21:50:00,60.4,52.1,29.97,East,96,0.0,0.0,74,0.00,,---,0.00,VWS V14.01,2013-05-08 01:50:00,
2013-05-07 21:55:00,59.8,51.9,29.97,East,96,0.0,0.0,75,0.00,,---,0.00,VWS V14.01,2013-05-08 01:55:00,
2013-05-07 22:00:00,59.4,51.8,29.97,East,96,0.0,0.0,76,0.00,,---,0.00,VWS V14.01,2013-05-08 02:00:00,
2013-05-07 22:05:00,59.1,51.9,29.97,East,96,0.0,0.0,77,0.00,,---,0.00,VWS V14.01,2013-05-08 02:05:00,
2013-05-07 22:10:00,58.7,51.9,29.97,East,96,0.0,0.0,78,0.00,,---,0.00,VWS V14.01,2013-05-08 02:10:00,
2013-05-07 22:15:00,58.3,52.2,29.97,East,96,0.0,0.0,80,0.00,,---,0.00,VWS V14.01,2013-05-08 02:15:00,
2013-05-07 22:20:00,58.0,52.2,29.98,East,96,0.0,0.0,81,0.00,,---,0.00,VWS V14.01,2013-05-08 02:20:00,
2013-05-07 22:25:00,57.5,52.1,29.98,East,96,0.0,0.0,82,0.00,,---,0.00,VWS V14.01,2013-05-08 02:25:00,
2013-05-07 22:30:00,57.1,52.0,29.98,East,96,0.0,0.0,83,0.00,,---,0.00,VWS V14.01,2013-05-08 02:30:00,
2013-05-07 22:35:00,57.0,51.9,29.98,East,96,0.0,0.0,83,0.00,,---,0.00,VWS V14.01,2013-05-08 02:35:00,
2013-05-07 22:40:00,57.4,52.0,29.98,East,96,0.0,0.0,82,0.00,,---,0.00,VWS V14.01,2013-05-08 02:40:00,
2013-05-07 22:45:00,57.8,52.0,29.98,East,96,0.0,0.0,81,0.00,,---,0.00,VWS V14.01,2013-05-08 02:45:00,
2013-05-07 22:50:00,57.5,51.7,29.98,East,96,0.0,0.0,81,0.00,,---,0.00,VWS V14.01,2013-05-08 02:50:00,
2013-05-07 22:55:00,57.2,52.1,29.98,East,96,0.0,0.0,83,0.00,,---,0.00,VWS V14.01,2013-05-08 02:55:00,
2013-05-07 23:00:00,56.9,52.4,29.98,East,96,0.0,0.0,85,0.00,,---,0.00,VWS V14.01,2013-05-08 03:00:00,
2013-05-07 23:05:00,56.7,52.6,29.98,East,96,0.0,0.0,86,0.00,,---,0.00,VWS V14.01,2013-05-08 03:05:00,
2013-05-07 23:10:00,56.5,52.0,29.98,East,96,0.0,0.0,85,0.00,,---,0.00,VWS V14.01,2013-05-08 03:10:00,
2013-05-07 23:15:00,56.1,51.7,29.98,East,96,0.0,0.0,85,0.00,,---,0.00,VWS V14.01,2013-05-08 03:15:00,
2013-05-07 23:20:00,55.9,52.4,29.98,East,96,0.0,0.0,88,0.00,,---,0.00,VWS V14.01,2013-05-08 03:20:00,
2013-05-07 23:25:00,55.7,52.2,29.98,East,96,0.0,0.0,88,0.00,,---,0.00,VWS V14.01,2013-05-08 03:25:00,
2013-05-07 23:30:00,55.5,52.3,29.98,East,96,0.0,0.0,89,0.00,,---,0.00,VWS V14.01,2013-05-08 03:30:00,
2013-05-07 23:36:00,55.3,52.1,29.98,East,96,0.0,0.0,89,0.00,,---,0.00,VWS V14.01,2013-05-08 03:36:00,
2013-05-07 23:41:00,55.1,51.9,29.98,East,96,0.0,0.0,89,0.00,,---,0.00,VWS V14.01,2013-05-08 03:41:00,
2013-05-07 23:46:00,55.0,52.1,29.98,East,96,0.0,0.0,90,0.00,,---,0.00,VWS V14.01,2013-05-08 03:46:00,
2013-05-07 23:51:00,55.1,52.2,29.98,East,96,0.0,0.0,90,0.00,,---,0.00,VWS V14.01,2013-05-08 03:51:00,
2013-05-07 23:56:00,55.0,52.1,29.98,East,96,0.0,0.0,90,0.00,,---,0.00,VWS V14.01,2013-05-08 03:56:00,